createdAt,value
2022-08-19T00:00:00.083Z,100860.75
2022-08-19T00:01:01.811Z,100866.16
2022-08-19T00:02:07.264Z,100862.59
2022-08-19T00:03:09.061Z,100865.50
2022-08-19T00:04:16.006Z,100865.50
2022-08-19T00:05:18.757Z,100863.63
2022-08-19T00:06:21.295Z,100867.34
2022-08-19T00:07:22.934Z,100866.72
2022-08-19T00:08:25.683Z,100861.31
2022-08-19T00:09:28.543Z,100871.31
2022-08-19T00:10:31.296Z,100868.59
2022-08-19T00:11:33.072Z,100875.03
2022-08-19T00:12:37.292Z,100869.84
2022-08-19T00:13:50.849Z,100874.41
2022-08-19T00:14:54.919Z,100864.59
2022-08-19T00:15:56.873Z,100865.44
2022-08-19T00:16:59.612Z,100863.81
2022-08-19T00:18:01.204Z,100862.97
2022-08-19T00:19:03.885Z,100865.00
2022-08-19T00:20:08.669Z,100861.69
2022-08-19T00:21:11.264Z,100867.94
2022-08-19T00:22:12.881Z,100869.16
2022-08-19T00:23:15.980Z,100861.22
2022-08-19T00:24:17.652Z,100864.13
2022-08-19T00:25:30.240Z,100861.63
2022-08-19T00:26:32.367Z,100861.81
2022-08-19T00:27:35.566Z,100862.03
2022-08-19T00:28:38.173Z,100857.84
2022-08-19T00:29:40.115Z,100861.56
2022-08-19T00:30:42.861Z,100859.91
2022-08-19T00:31:45.852Z,100857.41
2022-08-19T00:32:48.827Z,100861.97
2022-08-19T00:33:51.314Z,100860.28
2022-08-19T00:34:54.252Z,100861.31
2022-08-19T00:35:57.426Z,100857.78
2022-08-19T00:37:00.540Z,100851.56
2022-08-19T00:38:03.269Z,100856.97
2022-08-19T00:39:05.047Z,100851.56
2022-08-19T00:40:09.533Z,100858.81
2022-08-19T00:41:13.374Z,100860.69
2022-08-19T00:42:16.461Z,100860.69
2022-08-19T00:43:20.933Z,100861.69
2022-08-19T00:44:26.716Z,100861.53
2022-08-19T00:45:32.649Z,100849.03
2022-08-19T00:46:41.477Z,100856.28
2022-08-19T00:47:43.594Z,100861.69
2022-08-19T00:48:46.220Z,100858.38
2022-08-19T00:49:52.461Z,100861.69
2022-08-19T00:50:56.357Z,100857.53
2022-08-19T00:52:05.128Z,100860.44
2022-08-19T00:53:07.636Z,100856.06
2022-08-19T00:54:11.082Z,100853.38
2022-08-19T00:55:16.832Z,100859.59
2022-08-19T00:56:19.740Z,100856.25
2022-08-19T00:57:27.927Z,100852.72
2022-08-19T00:58:34.239Z,100852.06
2022-08-19T01:00:01.923Z,100849.38
2022-08-19T01:01:02.508Z,100847.69
2022-08-19T01:02:04.828Z,100838.94
2022-08-19T01:03:09.707Z,100850.78
2022-08-19T01:04:11.479Z,100844.75
2022-08-19T01:05:19.368Z,100847.44
2022-08-19T01:06:21.657Z,100850.31
2022-08-19T01:07:25.821Z,100847.81
2022-08-19T01:08:27.531Z,100855.09
2022-08-19T01:09:30.571Z,100859.66
2022-08-19T01:10:38.284Z,100857.16
2022-08-19T01:11:45.699Z,100854.84
2022-08-19T01:12:48.890Z,100855.66
2022-08-19T01:13:53.728Z,100856.69
2022-08-19T01:14:56.373Z,100856.69
2022-08-19T01:16:02.237Z,100858.34
2022-08-19T01:17:04.737Z,100849.63
2022-08-19T01:18:11.568Z,100847.94
2022-08-19T01:19:21.763Z,100856.25
2022-08-19T01:20:25.853Z,100851.69
2022-08-19T01:21:32.496Z,100850.41
2022-08-19T01:22:39.708Z,100852.06
2022-08-19T01:23:44.341Z,100857.47
2022-08-19T01:24:49.624Z,100853.94
2022-08-19T01:25:54.600Z,100855.81
2022-08-19T01:26:57.553Z,100855.81
2022-08-19T01:28:10.541Z,100848.94
2022-08-19T01:29:14.775Z,100857.88
2022-08-19T01:30:23.418Z,100851.63
2022-08-19T01:31:30.312Z,100850.78
2022-08-19T01:32:35.822Z,100850.13
2022-08-19T01:33:37.508Z,100847.44
2022-08-19T01:34:40.519Z,100847.44
2022-08-19T01:35:42.626Z,100846.78
2022-08-19T01:36:48.118Z,100841.59
2022-08-19T01:37:53.734Z,100844.09
2022-08-19T01:38:56.992Z,100848.66
2022-08-19T01:39:58.758Z,100846.16
2022-08-19T01:41:01.422Z,100842.41
2022-08-19T01:42:13.327Z,100847.81
2022-08-19T01:43:16.032Z,100845.50
2022-08-19T01:44:21.258Z,100847.41
2022-08-19T01:45:25.120Z,100844.69
2022-08-19T01:46:29.395Z,100842.16
2022-08-19T01:47:31.010Z,100839.47
2022-08-19T01:48:39.401Z,100837.78
2022-08-19T01:49:41.176Z,100845.88
2022-08-19T01:50:44.508Z,100847.97
2022-08-19T01:51:47.051Z,100848.97
2022-08-19T01:52:49.937Z,100848.97
2022-08-19T01:54:06.707Z,100850.03
2022-08-19T01:55:12.207Z,100849.19
2022-08-19T01:56:14.876Z,100852.06
2022-08-19T01:57:16.840Z,100846.66
2022-08-19T01:58:24.121Z,100855.78
2022-08-19T01:59:25.859Z,100847.69
2022-08-19T02:00:31.673Z,100847.06
2022-08-19T02:01:33.558Z,100848.06
2022-08-19T02:02:36.260Z,100852.84
2022-08-19T02:03:37.936Z,100846.81
2022-08-19T02:04:40.612Z,100844.28
2022-08-19T02:05:43.203Z,100844.50
2022-08-19T02:06:45.760Z,100836.41
2022-08-19T02:07:47.485Z,100834.72
2022-08-19T02:08:50.135Z,100837.19
2022-08-19T02:09:55.823Z,100832.19
2022-08-19T02:10:59.014Z,100839.28
2022-08-19T02:12:00.867Z,100838.44
2022-08-19T02:13:04.104Z,100838.44
2022-08-19T02:14:07.889Z,100843.00
2022-08-19T02:15:11.325Z,100839.66
2022-08-19T02:16:12.903Z,100832.41
2022-08-19T02:17:15.749Z,100837.97
2022-08-19T02:18:17.883Z,100846.28
2022-08-19T02:19:20.445Z,100839.19
2022-08-19T02:20:23.396Z,100837.53
2022-08-19T02:21:26.404Z,100849.38
2022-08-19T02:22:28.265Z,100849.53
2022-08-19T02:23:33.331Z,100855.78
2022-08-19T02:24:35.027Z,100862.41
2022-08-19T02:25:39.407Z,100856.16
2022-08-19T02:26:41.095Z,100859.88
2022-08-19T02:27:44.668Z,100852.81
2022-08-19T02:28:46.991Z,100853.19
2022-08-19T02:29:51.016Z,100860.28
2022-08-19T02:30:52.926Z,100858.78
2022-08-19T02:31:55.551Z,100858.97
2022-08-19T02:32:57.553Z,100856.28
2022-08-19T02:34:00.985Z,100860.00
2022-08-19T02:35:04.327Z,100855.81
2022-08-19T02:36:16.660Z,100851.63
2022-08-19T02:37:41.313Z,100854.34
2022-08-19T02:38:47.677Z,100850.97
2022-08-19T02:39:57.294Z,100845.75
2022-08-19T02:41:05.751Z,100847.81
2022-08-19T02:42:08.750Z,100853.38
2022-08-19T02:43:10.640Z,100849.03
2022-08-19T02:44:29.882Z,100849.03
2022-08-19T02:45:40.508Z,100857.13
2022-08-19T02:46:45.646Z,100858.16
2022-08-19T02:47:47.375Z,100858.16
2022-08-19T02:48:50.434Z,100855.44
2022-08-19T02:49:52.086Z,100859.81
2022-08-19T02:50:56.693Z,100859.81
2022-08-19T02:51:58.390Z,100857.94
2022-08-19T02:53:01.086Z,100859.81
2022-08-19T02:54:05.492Z,100865.41
2022-08-19T02:55:08.361Z,100867.09
2022-08-19T02:56:12.277Z,100866.25
2022-08-19T02:57:14.063Z,100861.84
2022-08-19T02:58:17.819Z,100862.91
2022-08-19T02:59:22.952Z,100868.31
2022-08-19T03:00:25.973Z,100863.91
2022-08-19T03:01:31.297Z,100872.00
2022-08-19T03:02:34.122Z,100875.72
2022-08-19T03:03:35.704Z,100876.75
2022-08-19T03:04:38.353Z,100879.44
2022-08-19T03:05:48.263Z,100874.88
2022-08-19T03:07:10.724Z,100874.88
2022-08-19T03:08:22.873Z,100875.72
2022-08-19T03:09:24.502Z,100874.06
2022-08-19T03:10:27.183Z,100868.66
2022-08-19T03:11:31.835Z,100867.84
2022-08-19T03:12:38.110Z,100868.66
2022-08-19T03:13:39.691Z,100871.34
2022-08-19T03:14:42.324Z,100869.69
2022-08-19T03:15:46.898Z,100879.44
2022-08-19T03:16:53.691Z,100865.31
2022-08-19T03:17:55.323Z,100863.63
2022-08-19T03:19:01.021Z,100861.13
2022-08-19T03:20:04.117Z,100860.28
2022-08-19T03:21:12.520Z,100860.47
2022-08-19T03:22:15.020Z,100871.47
2022-08-19T03:23:18.758Z,100860.69
2022-08-19T03:24:21.157Z,100867.28
2022-08-19T03:25:23.818Z,100865.78
2022-08-19T03:26:25.636Z,100864.97
2022-08-19T03:27:34.890Z,100869.69
2022-08-19T03:28:37.632Z,100869.91
2022-08-19T03:29:43.352Z,100874.63
2022-08-19T03:30:57.587Z,100873.78
2022-08-19T03:32:01.447Z,100878.38
2022-08-19T03:33:04.301Z,100871.47
2022-08-19T03:34:08.212Z,100872.50
2022-08-19T03:35:17.896Z,100876.22
2022-08-19T03:36:24.851Z,100877.06
2022-08-19T03:37:29.434Z,100871.03
2022-08-19T03:38:33.086Z,100882.47
2022-08-19T03:39:37.613Z,100877.06
2022-08-19T03:40:43.860Z,100882.47
2022-08-19T03:42:31.916Z,100869.16
2022-08-19T03:43:15.859Z,100874.75
2022-08-19T03:44:21.466Z,100869.53
2022-08-19T03:45:24.110Z,100873.44
2022-08-19T03:46:28.277Z,100870.75
2022-08-19T03:47:31.361Z,100876.34
2022-08-19T03:48:34.140Z,100879.22
2022-08-19T03:49:37.469Z,100877.53
2022-08-19T03:50:39.773Z,100876.03
2022-08-19T03:51:43.940Z,100872.50
2022-08-19T03:52:49.421Z,100880.59
2022-08-19T03:53:52.909Z,100873.53
2022-08-19T03:54:55.580Z,100877.25
2022-08-19T03:55:58.897Z,100876.59
2022-08-19T03:57:01.560Z,100881.97
2022-08-19T03:58:03.195Z,100881.34
2022-08-19T03:59:09.160Z,100883.41
2022-08-19T04:00:13.805Z,100880.03
2022-08-19T04:01:19.555Z,100880.22
2022-08-19T04:02:22.358Z,100883.78
2022-08-19T04:03:23.987Z,100883.78
2022-08-19T04:04:29.270Z,100874.16
2022-08-19T04:05:31.108Z,100881.44
2022-08-19T04:06:36.005Z,100876.22
2022-08-19T04:07:41.694Z,100871.84
2022-08-19T04:08:46.355Z,100870.19
2022-08-19T04:09:48.294Z,100865.16
2022-08-19T04:10:51.409Z,100873.25
2022-08-19T04:11:56.500Z,100876.13
2022-08-19T04:12:59.418Z,100873.25
2022-08-19T04:14:01.767Z,100869.03
2022-08-19T04:15:09.516Z,100869.03
2022-08-19T04:16:11.940Z,100879.84
2022-08-19T04:17:14.970Z,100881.69
2022-08-19T04:18:16.648Z,100882.91
2022-08-19T04:19:20.699Z,100876.50
2022-08-19T04:20:22.520Z,100881.03
2022-08-19T04:21:27.345Z,100880.19
2022-08-19T04:22:29.031Z,100876.50
2022-08-19T04:23:32.082Z,100885.59
2022-08-19T04:24:35.066Z,100870.47
2022-08-19T04:25:39.522Z,100874.81
2022-08-19T04:26:41.932Z,100876.66
2022-08-19T04:27:47.191Z,100866.09
2022-08-19T04:28:49.995Z,100878.53
2022-08-19T04:29:53.383Z,100876.88
2022-08-19T04:30:56.792Z,100876.00
2022-08-19T04:32:00.475Z,100871.47
2022-08-19T04:33:12.724Z,100882.25
2022-08-19T04:34:18.450Z,100876.88
2022-08-19T04:35:23.137Z,100886.78
2022-08-19T04:36:29.826Z,100885.94
2022-08-19T04:37:35.078Z,100882.25
2022-08-19T04:38:38.204Z,100885.09
2022-08-19T04:40:02.487Z,100878.84
2022-08-19T04:41:23.966Z,100886.78
2022-08-19T04:42:40.895Z,100885.94
2022-08-19T04:43:47.354Z,100887.66
2022-08-19T04:44:49.619Z,100887.66
2022-08-19T04:45:56.935Z,100884.94
2022-08-19T04:47:11.435Z,100887.66
2022-08-19T04:48:27.163Z,100885.94
2022-08-19T04:49:29.845Z,100888.50
2022-08-19T04:50:32.473Z,100893.03
2022-08-19T04:51:35.824Z,100894.84
2022-08-19T04:52:43.538Z,100898.44
2022-08-19T04:53:46.905Z,100901.25
2022-08-19T04:54:49.052Z,100906.66
2022-08-19T04:55:52.411Z,100905.00
2022-08-19T04:56:54.543Z,100911.19
2022-08-19T04:57:57.193Z,100913.25
2022-08-19T04:59:03.974Z,100912.41
2022-08-19T05:00:07.866Z,100915.94
2022-08-19T05:01:12.835Z,100916.97
2022-08-19T05:02:16.885Z,100915.94
2022-08-19T05:03:19.076Z,100919.66
2022-08-19T05:04:22.062Z,100921.34
2022-08-19T05:05:26.371Z,100918.63
2022-08-19T05:06:33.667Z,100921.53
2022-08-19T05:07:36.060Z,100922.34
2022-08-19T05:08:42.952Z,100922.34
2022-08-19T05:09:57.955Z,100924.03
2022-08-19T05:11:01.043Z,100924.03
2022-08-19T05:12:05.068Z,100928.41
2022-08-19T05:13:06.664Z,100929.25
2022-08-19T05:14:10.755Z,100931.75
2022-08-19T05:15:12.597Z,100934.44
2022-08-19T05:16:16.883Z,100925.38
2022-08-19T05:17:28.423Z,100930.78
2022-08-19T05:18:49.360Z,100931.41
2022-08-19T05:20:09.559Z,100936.44
2022-08-19T05:21:31.550Z,100933.56
2022-08-19T05:22:35.465Z,100943.34
2022-08-19T05:23:38.119Z,100933.38
2022-08-19T05:25:02.572Z,100950.03
2022-08-19T05:26:05.306Z,100940.94
2022-08-19T05:27:07.072Z,100945.31
2022-08-19T05:28:09.625Z,100946.16
2022-08-19T05:29:11.206Z,100943.47
2022-08-19T05:30:14.678Z,100949.50
2022-08-19T05:31:16.274Z,100954.69
2022-08-19T05:32:18.918Z,100946.44
2022-08-19T05:33:22.465Z,100949.97
2022-08-19T05:34:27.035Z,100947.75
2022-08-19T05:35:29.343Z,100943.00
2022-08-19T05:36:40.845Z,100953.59
2022-08-19T05:37:45.547Z,100955.09
2022-08-19T05:38:48.390Z,100955.56
2022-08-19T05:39:53.383Z,100954.19
2022-08-19T05:40:55.371Z,100953.81
2022-08-19T05:41:59.914Z,100956.13
2022-08-19T05:43:01.625Z,100951.38
2022-08-19T05:44:09.987Z,100946.47
2022-08-19T05:45:12.865Z,100946.91
2022-08-19T05:46:19.585Z,100949.25
2022-08-19T05:47:30.283Z,100952.41
2022-08-19T05:48:33.594Z,100942.09
2022-08-19T05:49:37.738Z,100943.41
2022-08-19T05:50:40.393Z,100954.66
2022-08-19T05:51:43.904Z,100952.22
2022-08-19T05:52:50.670Z,100955.38
2022-08-19T05:53:53.907Z,100950.28
2022-08-19T05:54:57.143Z,100952.44
2022-08-19T05:55:59.032Z,100949.19
2022-08-19T05:57:03.026Z,100956.69
2022-08-19T05:58:04.856Z,100950.91
2022-08-19T05:59:09.996Z,100953.22
2022-08-19T06:00:13.256Z,100948.88
2022-08-19T06:01:20.006Z,100939.94
2022-08-19T06:02:21.887Z,100945.97
2022-08-19T06:03:25.089Z,100944.13
2022-08-19T06:04:28.143Z,100943.09
2022-08-19T06:05:31.168Z,100945.59
2022-08-19T06:06:35.065Z,100940.03
2022-08-19T06:07:38.152Z,100941.69
2022-08-19T06:08:40.667Z,100940.66
2022-08-19T06:09:43.707Z,100939.44
2022-08-19T06:11:15.116Z,100942.97
2022-08-19T06:12:17.689Z,100939.88
2022-08-19T06:13:20.982Z,100941.41
2022-08-19T06:14:27.767Z,100937.66
2022-08-19T06:15:30.148Z,100937.66
2022-08-19T06:16:36.097Z,100941.00
2022-08-19T06:17:39.195Z,100938.50
2022-08-19T06:18:40.853Z,100943.06
2022-08-19T06:19:44.821Z,100946.59
2022-08-19T06:20:55.995Z,100947.63
2022-08-19T06:22:00.932Z,100946.97
2022-08-19T06:23:04.641Z,100938.25
2022-08-19T06:24:08.623Z,100939.09
2022-08-19T06:25:11.354Z,100939.88
2022-08-19T06:26:14.338Z,100939.50
2022-08-19T06:27:17.284Z,100939.50
2022-08-19T06:28:19.202Z,100941.19
2022-08-19T06:29:24.695Z,100940.81
2022-08-19T06:30:26.477Z,100936.88
2022-08-19T06:31:30.336Z,100938.19
2022-08-19T06:32:32.633Z,100938.91
2022-08-19T06:33:35.220Z,100936.47
2022-08-19T06:34:38.121Z,100937.56
2022-08-19T06:35:42.351Z,100937.63
2022-08-19T06:36:47.786Z,100935.22
2022-08-19T06:37:49.461Z,100938.16
2022-08-19T06:38:52.070Z,100935.34
2022-08-19T06:39:54.067Z,100940.16
2022-08-19T06:41:02.603Z,100933.53
2022-08-19T06:42:17.069Z,100935.03
2022-08-19T06:43:19.411Z,100939.19
2022-08-19T06:44:25.006Z,100945.22
2022-08-19T06:45:34.793Z,100942.34
2022-08-19T06:46:38.108Z,100942.78
2022-08-19T06:47:44.762Z,100939.69
2022-08-19T06:48:47.168Z,100938.69
2022-08-19T06:49:49.745Z,100946.78
2022-08-19T06:50:52.951Z,100946.78
2022-08-19T06:51:57.685Z,100943.41
2022-08-19T06:53:04.398Z,100940.72
2022-08-19T06:54:07.433Z,100948.81
2022-08-19T06:55:22.423Z,100949.88
2022-08-19T06:56:31.953Z,100955.28
2022-08-19T06:57:36.020Z,100950.28
2022-08-19T06:58:37.642Z,100946.53
2022-08-19T06:59:40.358Z,100959.03
2022-08-19T07:00:42.012Z,100957.34
2022-08-19T07:01:47.869Z,100953.78
2022-08-19T07:02:56.169Z,100957.72
2022-08-19T07:04:03.271Z,100958.13
2022-08-19T07:05:07.683Z,100965.59
2022-08-19T07:06:32.502Z,100952.25
2022-08-19T07:07:36.608Z,100957.03
2022-08-19T07:08:41.763Z,100957.88
2022-08-19T07:09:52.174Z,100960.75
2022-08-19T07:11:02.782Z,100952.47
2022-08-19T07:12:14.371Z,100949.78
2022-08-19T07:13:16.160Z,100959.53
2022-08-19T07:14:21.204Z,100952.06
2022-08-19T07:15:24.106Z,100959.13
2022-08-19T07:16:29.364Z,100944.59
2022-08-19T07:17:31.757Z,100952.31
2022-08-19T07:18:38.288Z,100951.94
2022-08-19T07:19:43.313Z,100958.63
2022-08-19T07:20:45.716Z,100958.22
2022-08-19T07:21:51.900Z,100962.00
2022-08-19T07:22:54.157Z,100969.09
2022-08-19T07:23:58.788Z,100966.22
2022-08-19T07:25:01.381Z,100972.44
2022-08-19T07:26:09.293Z,100968.72
2022-08-19T07:27:13.826Z,100968.72
2022-08-19T07:28:24.425Z,100967.69
2022-08-19T07:29:29.077Z,100973.56
2022-08-19T07:30:31.830Z,100970.00
2022-08-19T07:31:37.715Z,100968.78
2022-08-19T07:32:40.487Z,100971.28
2022-08-19T07:33:43.892Z,100980.03
2022-08-19T07:34:46.963Z,100979.63
2022-08-19T07:35:48.560Z,100973.00
2022-08-19T07:36:52.565Z,100971.78
2022-08-19T07:37:54.399Z,100978.66
2022-08-19T07:38:57.237Z,100983.50
2022-08-19T07:39:59.860Z,100979.38
2022-08-19T07:41:02.247Z,100978.59
2022-08-19T07:42:09.772Z,100976.13
2022-08-19T07:43:14.236Z,100987.41
2022-08-19T07:44:22.008Z,100976.38
2022-08-19T07:45:25.086Z,100981.59
2022-08-19T07:46:31.998Z,100984.94
2022-08-19T07:47:50.025Z,100982.88
2022-08-19T07:48:54.061Z,100986.00
2022-08-19T07:49:55.686Z,100991.03
2022-08-19T07:51:02.716Z,100991.88
2022-08-19T07:52:10.385Z,100996.31
2022-08-19T07:53:13.276Z,100996.16
2022-08-19T07:54:16.092Z,100992.66
2022-08-19T07:55:41.446Z,101002.31
2022-08-19T07:56:43.846Z,101010.66
2022-08-19T07:57:45.649Z,101002.78
2022-08-19T07:58:51.098Z,101006.53
2022-08-19T07:59:52.781Z,101005.28
2022-08-19T08:00:55.630Z,101012.22
2022-08-19T08:02:00.479Z,101014.09
2022-08-19T08:03:02.236Z,101011.56
2022-08-19T08:04:22.682Z,101013.66
2022-08-19T08:05:44.239Z,101010.50
2022-08-19T08:07:14.438Z,101012.97
2022-08-19T08:08:34.634Z,101013.59
2022-08-19T08:09:41.127Z,101015.19
2022-08-19T08:10:44.415Z,101019.97
2022-08-19T08:12:02.004Z,101008.69
2022-08-19T08:13:10.310Z,101012.25
2022-08-19T08:14:29.504Z,101014.75
2022-08-19T08:15:42.136Z,101017.25
2022-08-19T08:16:46.992Z,101008.09
2022-08-19T08:17:51.676Z,101014.00
2022-08-19T08:18:53.479Z,101016.47
2022-08-19T08:19:58.339Z,101017.56
2022-08-19T08:21:00.051Z,101016.75
2022-08-19T08:22:07.275Z,101017.81
2022-08-19T08:23:25.904Z,101013.66
2022-08-19T08:24:31.508Z,101018.06
2022-08-19T08:25:42.034Z,101021.41
2022-08-19T08:26:46.863Z,101015.97
2022-08-19T08:27:53.883Z,101021.41
2022-08-19T08:28:58.494Z,101020.38
2022-08-19T08:30:03.036Z,101023.88
2022-08-19T08:31:09.715Z,101027.66
2022-08-19T08:32:14.202Z,101029.31
2022-08-19T08:33:30.001Z,101024.09
2022-08-19T08:34:37.920Z,101022.44
2022-08-19T08:35:43.328Z,101030.81
2022-08-19T08:36:47.063Z,101029.75
2022-08-19T08:37:53.638Z,101028.75
2022-08-19T08:40:00.086Z,101033.81
2022-08-19T08:41:11.125Z,101028.25
2022-08-19T08:42:21.596Z,101034.31
2022-08-19T08:43:30.629Z,101033.91
2022-08-19T08:44:51.545Z,101029.31
2022-08-19T08:46:00.307Z,101030.34
2022-08-19T08:47:07.893Z,101026.59
2022-08-19T08:48:22.276Z,101026.78
2022-08-19T08:49:35.411Z,101023.88
2022-08-19T08:50:43.092Z,101022.84
2022-08-19T08:51:59.374Z,101021.38
2022-08-19T08:53:07.832Z,101023.69
2022-08-19T08:54:13.859Z,101017.22
2022-08-19T08:55:21.210Z,101019.75
2022-08-19T08:56:24.831Z,101016.81
2022-08-19T08:57:33.758Z,101020.16
2022-08-19T08:58:59.024Z,101019.94
2022-08-19T09:00:05.076Z,101019.31
2022-08-19T09:01:12.229Z,101024.75
2022-08-19T09:02:14.825Z,101017.84
2022-08-19T09:03:21.763Z,101018.47
2022-08-19T09:04:25.263Z,101014.09
2022-08-19T09:05:42.112Z,101015.53
2022-08-19T09:06:56.733Z,101018.91
2022-08-19T09:08:06.833Z,101018.91
2022-08-19T09:09:15.234Z,101020.97
2022-08-19T09:10:32.600Z,101017.47
2022-08-19T09:11:47.590Z,101015.78
2022-08-19T09:13:01.389Z,101020.38
2022-08-19T09:14:29.269Z,101014.75
2022-08-19T09:15:40.328Z,101014.75
2022-08-19T09:16:41.987Z,101018.91
2022-08-19T09:17:45.544Z,101019.13
2022-08-19T09:18:54.440Z,101020.19
2022-08-19T09:19:59.437Z,101016.84
2022-08-19T09:21:05.117Z,101018.94
2022-08-19T09:22:08.527Z,101014.78
2022-08-19T09:23:14.676Z,101019.78
2022-08-19T09:24:16.275Z,101018.50
2022-08-19T09:25:24.732Z,101021.00
2022-08-19T09:26:47.360Z,101018.50
2022-08-19T09:27:52.976Z,101018.72
2022-08-19T09:28:55.728Z,101018.50
2022-08-19T09:30:01.190Z,101021.00
2022-08-19T09:31:03.054Z,101011.81
2022-08-19T09:32:06.208Z,101012.47
2022-08-19T09:33:28.881Z,101004.72
2022-08-19T09:34:38.059Z,101019.53
2022-08-19T09:35:50.194Z,101015.56
2022-08-19T09:36:56.441Z,101016.41
2022-08-19T09:38:00.607Z,101019.78
2022-08-19T09:39:04.909Z,101011.41
2022-08-19T09:40:20.246Z,101017.66
2022-08-19T09:41:24.179Z,101012.03
2022-08-19T09:42:30.490Z,101012.84
2022-08-19T09:43:44.680Z,101020.59
2022-08-19T09:44:50.579Z,101012.66
2022-08-19T09:45:53.405Z,101017.66
2022-08-19T09:46:57.010Z,101019.94
2022-08-19T09:47:58.640Z,101018.91
2022-08-19T09:49:07.102Z,101019.50
2022-08-19T09:50:12.248Z,101010.09
2022-08-19T09:51:24.203Z,101011.78
2022-08-19T09:52:26.091Z,101007.19
2022-08-19T09:53:35.624Z,101009.47
2022-08-19T09:54:40.364Z,101007.59
2022-08-19T09:55:46.881Z,101007.78
2022-08-19T09:56:48.799Z,101012.59
2022-08-19T09:57:51.567Z,101002.56
2022-08-19T09:58:53.248Z,101005.91
2022-08-19T09:59:56.085Z,101005.47
2022-08-19T10:00:59.278Z,101007.34
2022-08-19T10:02:03.695Z,101006.31
2022-08-19T10:03:12.605Z,100999.59
2022-08-19T10:04:20.414Z,100999.59
2022-08-19T10:05:42.695Z,100998.78
2022-08-19T10:06:46.718Z,101007.34
2022-08-19T10:07:49.118Z,101001.47
2022-08-19T10:08:53.015Z,101010.88
2022-08-19T10:09:56.382Z,101007.53
2022-08-19T10:10:59.363Z,101005.88
2022-08-19T10:12:06.179Z,101003.13
2022-08-19T10:13:08.911Z,101005.22
2022-08-19T10:14:11.543Z,101002.91
2022-08-19T10:15:13.890Z,101005.63
2022-08-19T10:16:19.756Z,101007.25
2022-08-19T10:17:26.412Z,101007.91
2022-08-19T10:18:30.094Z,101005.34
2022-08-19T10:19:36.757Z,101001.59
2022-08-19T10:20:39.322Z,101004.91
2022-08-19T10:21:41.299Z,101004.09
2022-08-19T10:22:44.508Z,101006.59
2022-08-19T10:23:49.690Z,100995.72
2022-08-19T10:24:53.354Z,101003.28
2022-08-19T10:26:00.762Z,101000.56
2022-08-19T10:27:04.585Z,101002.63
2022-08-19T10:28:10.552Z,100999.91
2022-08-19T10:29:13.397Z,100996.75
2022-08-19T10:30:34.001Z,100990.88
2022-08-19T10:32:00.050Z,100989.84
2022-08-19T10:32:59.206Z,100980.66
2022-08-19T10:34:02.603Z,100980.22
2022-08-19T10:35:08.834Z,100979.16
2022-08-19T10:36:15.915Z,100988.97
2022-08-19T10:37:23.725Z,100979.78
2022-08-19T10:38:33.002Z,100983.53
2022-08-19T10:39:43.595Z,100988.78
2022-08-19T10:40:46.268Z,100982.69
2022-08-19T10:41:49.308Z,100985.66
2022-08-19T10:42:51.891Z,100986.09
2022-08-19T10:43:55.472Z,100991.13
2022-08-19T10:44:58.212Z,100982.38
2022-08-19T10:46:00.115Z,100989.31
2022-08-19T10:47:03.570Z,100988.25
2022-08-19T10:48:05.371Z,100989.53
2022-08-19T10:49:08.001Z,100983.06
2022-08-19T10:50:28.985Z,100982.03
2022-08-19T10:51:50.733Z,100981.19
2022-08-19T10:52:52.349Z,100982.03
2022-08-19T10:53:59.027Z,100984.50
2022-08-19T10:55:19.134Z,100987.47
2022-08-19T10:56:39.320Z,100983.66
2022-08-19T10:59:05.865Z,100987.47
2022-08-19T11:00:08.597Z,100982.03
2022-08-19T11:01:15.970Z,100988.66
2022-08-19T11:02:18.616Z,100988.22
2022-08-19T11:03:20.255Z,100982.81
2022-08-19T11:04:23.368Z,100989.50
2022-08-19T11:05:31.397Z,100983.22
2022-08-19T11:06:44.387Z,100979.91
2022-08-19T11:07:46.483Z,100979.91
2022-08-19T11:08:49.189Z,100978.88
2022-08-19T11:09:55.812Z,100972.34
2022-08-19T11:11:03.698Z,100979.03
2022-08-19T11:12:06.941Z,100973.81
2022-08-19T11:13:09.975Z,100969.13
2022-08-19T11:14:15.852Z,100975.19
2022-08-19T11:15:17.605Z,100975.97
2022-08-19T11:16:22.722Z,100969.88
2022-08-19T11:17:24.420Z,100981.38
2022-08-19T11:18:27.354Z,100977.16
2022-08-19T11:19:28.978Z,100977.53
2022-08-19T11:20:32.319Z,100969.59
2022-08-19T11:21:41.784Z,100983.38
2022-08-19T11:22:43.672Z,100973.72
2022-08-19T11:23:48.468Z,100975.16
2022-08-19T11:24:50.236Z,100978.13
2022-08-19T11:25:54.054Z,100973.94
2022-08-19T11:27:03.504Z,100977.09
2022-08-19T11:28:06.829Z,100976.69
2022-08-19T11:29:12.376Z,100967.72
2022-08-19T11:30:16.321Z,100975.66
2022-08-19T11:31:20.842Z,100977.09
2022-08-19T11:32:23.851Z,100968.09
2022-08-19T11:33:27.225Z,100969.56
2022-08-19T11:34:30.566Z,100976.19
2022-08-19T11:35:33.856Z,100970.75
2022-08-19T11:36:39.725Z,100974.56
2022-08-19T11:37:41.629Z,100968.47
2022-08-19T11:38:44.502Z,100969.75
2022-08-19T11:39:51.357Z,100971.03
2022-08-19T11:40:57.230Z,100965.00
2022-08-19T11:42:00.928Z,100961.44
2022-08-19T11:43:02.531Z,100957.88
2022-08-19T11:44:05.719Z,100953.88
2022-08-19T11:45:10.022Z,100960.75
2022-08-19T11:46:16.244Z,100957.84
2022-08-19T11:47:18.038Z,100955.94
2022-08-19T11:48:23.294Z,100950.28
2022-08-19T11:49:25.031Z,100963.03
2022-08-19T11:50:27.645Z,100953.84
2022-08-19T11:51:30.673Z,100951.72
2022-08-19T11:52:33.251Z,100945.84
2022-08-19T11:53:35.817Z,100953.13
2022-08-19T11:54:38.519Z,100958.72
2022-08-19T11:55:43.384Z,100946.34
2022-08-19T11:56:48.655Z,100946.94
2022-08-19T11:57:50.568Z,100948.19
2022-08-19T11:58:54.150Z,100949.63
2022-08-19T11:59:55.893Z,100950.25
2022-08-19T12:01:00.247Z,100947.28
2022-08-19T12:02:02.006Z,100953.34
2022-08-19T12:03:04.832Z,100950.19
2022-08-19T12:04:06.583Z,100950.78
2022-08-19T12:05:12.631Z,100952.47
2022-08-19T12:06:17.594Z,100955.19
2022-08-19T12:07:20.228Z,100955.19
2022-08-19T12:08:21.804Z,100954.09
2022-08-19T12:09:24.375Z,100954.09
2022-08-19T12:10:26.643Z,100960.63
2022-08-19T12:11:29.313Z,100957.06
2022-08-19T12:12:38.848Z,100955.19
2022-08-19T12:13:45.184Z,100949.50
2022-08-19T12:14:48.423Z,100954.88
2022-08-19T12:15:50.834Z,100948.97
2022-08-19T12:16:55.169Z,100943.13
2022-08-19T12:17:58.016Z,100948.56
2022-08-19T12:19:04.617Z,100944.78
2022-08-19T12:20:07.794Z,100944.19
2022-08-19T12:21:11.867Z,100938.94
2022-08-19T12:22:13.509Z,100935.22
2022-08-19T12:23:16.089Z,100943.84
2022-08-19T12:24:23.786Z,100939.50
2022-08-19T12:25:26.430Z,100935.16
2022-08-19T12:26:29.603Z,100947.59
2022-08-19T12:27:40.158Z,100943.38
2022-08-19T12:28:44.650Z,100942.59
2022-08-19T12:29:47.244Z,100937.13